sensor_id;sensor_type;location;lat;lon;timestamp;pressure;altitude;pressure_sealevel;temperature;humidity
43621;BME280;29213;50.770;7.298;2023-06-14T00:00:13;100581.63;;;14.60;47.41
43621;BME280;29213;50.770;7.298;2023-06-14T00:02:39;100539.59;;;14.23;47.38
43621;BME280;29213;50.770;7.298;2023-06-14T00:05:08;100550.13;;;14.25;47.54
43621;BME280;29213;50.770;7.298;2023-06-14T00:07:35;100584.81;;;14.48;47.51
43621;BME280;29213;50.770;7.298;2023-06-14T00:10:02;100600.13;;;14.54;47.73
43621;BME280;29213;50.770;7.298;2023-06-14T00:12:27;100591.81;;;14.49;47.87
43621;BME280;29213;50.770;7.298;2023-06-14T00:14:52;100610.13;;;14.46;47.99
43621;BME280;29213;50.770;7.298;2023-06-14T00:17:18;100540.56;;;14.00;48.21
43621;BME280;29213;50.770;7.298;2023-06-14T00:19:43;100538.06;;;13.99;48.13
43621;BME280;29213;50.770;7.298;2023-06-14T00:22:09;100521.66;;;13.87;48.15
43621;BME280;29213;50.770;7.298;2023-06-14T00:24:34;100563.75;;;14.08;48.31
43621;BME280;29213;50.770;7.298;2023-06-14T00:27:00;100586.50;;;14.19;48.33
43621;BME280;29213;50.770;7.298;2023-06-14T00:29:25;100609.78;;;14.34;48.51
43621;BME280;29213;50.770;7.298;2023-06-14T00:31:51;100610.78;;;14.33;48.49
43621;BME280;29213;50.770;7.298;2023-06-14T00:34:16;100533.94;;;13.81;48.29
43621;BME280;29213;50.770;7.298;2023-06-14T00:36:42;100553.78;;;13.87;48.19
43621;BME280;29213;50.770;7.298;2023-06-14T00:39:07;100541.34;;;13.79;48.20
43621;BME280;29213;50.770;7.298;2023-06-14T00:41:32;100528.22;;;13.69;48.19
43621;BME280;29213;50.770;7.298;2023-06-14T00:43:58;100572.31;;;13.88;48.26
43621;BME280;29213;50.770;7.298;2023-06-14T00:46:25;100581.53;;;13.86;48.15
43621;BME280;29213;50.770;7.298;2023-06-14T00:48:50;100549.00;;;13.67;48.30
43621;BME280;29213;50.770;7.298;2023-06-14T00:51:16;100536.91;;;13.56;48.32
43621;BME280;29213;50.770;7.298;2023-06-14T00:53:41;100610.44;;;14.06;47.92
43621;BME280;29213;50.770;7.298;2023-06-14T00:56:11;100555.94;;;13.61;48.49
43621;BME280;29213;50.770;7.298;2023-06-14T00:58:38;100605.63;;;13.86;48.54
43621;BME280;29213;50.770;7.298;2023-06-14T01:01:04;100602.06;;;13.79;48.90
43621;BME280;29213;50.770;7.298;2023-06-14T01:03:29;100584.97;;;13.65;48.85
43621;BME280;29213;50.770;7.298;2023-06-14T01:06:18;100602.34;;;13.69;48.84
43621;BME280;29213;50.770;7.298;2023-06-14T01:09:03;100629.09;;;13.84;49.19
43621;BME280;29213;50.770;7.298;2023-06-14T01:11:33;100546.56;;;13.27;49.03
43621;BME280;29213;50.770;7.298;2023-06-14T01:14:02;100574.72;;;13.38;49.04
43621;BME280;29213;50.770;7.298;2023-06-14T01:16:29;100552.47;;;13.22;49.13
43621;BME280;29213;50.770;7.298;2023-06-14T01:18:56;100485.56;;;12.77;48.89
43621;BME280;29213;50.770;7.298;2023-06-14T01:21:24;100593.91;;;13.42;48.70
43621;BME280;29213;50.770;7.298;2023-06-14T01:23:51;100599.66;;;13.39;48.87
43621;BME280;29213;50.770;7.298;2023-06-14T01:26:19;100568.22;;;13.17;48.84
43621;BME280;29213;50.770;7.298;2023-06-14T01:28:45;100623.44;;;13.48;48.84
43621;BME280;29213;50.770;7.298;2023-06-14T01:31:16;100544.47;;;12.99;48.93
43621;BME280;29213;50.770;7.298;2023-06-14T01:33:43;100586.94;;;13.17;48.91
43621;BME280;29213;50.770;7.298;2023-06-14T01:36:09;100599.88;;;13.29;48.86
43621;BME280;29213;50.770;7.298;2023-06-14T01:38:36;100577.38;;;13.08;48.84
43621;BME280;29213;50.770;7.298;2023-06-14T01:41:03;100643.19;;;13.47;48.98
43621;BME280;29213;50.770;7.298;2023-06-14T01:43:31;100627.66;;;13.28;48.94
43621;BME280;29213;50.770;7.298;2023-06-14T01:45:56;100640.22;;;13.42;49.00
43621;BME280;29213;50.770;7.298;2023-06-14T01:48:23;100599.56;;;13.08;49.11
43621;BME280;29213;50.770;7.298;2023-06-14T01:50:49;100646.31;;;13.36;49.02
43621;BME280;29213;50.770;7.298;2023-06-14T01:53:15;100605.47;;;13.04;49.05
43621;BME280;29213;50.770;7.298;2023-06-14T01:55:41;100646.19;;;13.29;49.14
43621;BME280;29213;50.770;7.298;2023-06-14T01:58:08;100647.38;;;13.27;49.26
43621;BME280;29213;50.770;7.298;2023-06-14T02:00:34;100626.13;;;13.10;49.35
43621;BME280;29213;50.770;7.298;2023-06-14T02:03:00;100509.09;;;12.35;49.35
43621;BME280;29213;50.770;7.298;2023-06-14T02:05:25;100577.22;;;12.78;49.59
43621;BME280;29213;50.770;7.298;2023-06-14T02:07:51;100582.56;;;12.78;49.52
43621;BME280;29213;50.770;7.298;2023-06-14T02:10:18;100533.06;;;12.43;49.46
43621;BME280;29213;50.770;7.298;2023-06-14T02:12:44;100647.34;;;13.12;49.98
43621;BME280;29213;50.770;7.298;2023-06-14T02:15:10;100657.38;;;13.09;49.85
43621;BME280;29213;50.770;7.298;2023-06-14T02:17:42;100562.56;;;12.50;49.79
43621;BME280;29213;50.770;7.298;2023-06-14T02:20:08;100546.28;;;12.37;50.04
43621;BME280;29213;50.770;7.298;2023-06-14T02:22:34;100651.06;;;13.02;50.10
43621;BME280;29213;50.770;7.298;2023-06-14T02:25:00;100599.00;;;12.66;50.03
43621;BME280;29213;50.770;7.298;2023-06-14T02:27:25;100556.66;;;12.32;50.14
43621;BME280;29213;50.770;7.298;2023-06-14T02:29:50;100202.69;;;10.10;50.02
43621;BME280;29213;50.770;7.298;2023-06-14T02:32:16;100586.13;;;12.47;50.08
43621;BME280;29213;50.770;7.298;2023-06-14T02:34:41;100588.13;;;12.45;50.26
43621;BME280;29213;50.770;7.298;2023-06-14T02:37:07;100467.44;;;11.62;50.05
43621;BME280;29213;50.770;7.298;2023-06-14T02:39:33;100657.22;;;12.79;50.21
43621;BME280;29213;50.770;7.298;2023-06-14T02:41:59;100595.84;;;12.39;50.23
43621;BME280;29213;50.770;7.298;2023-06-14T02:44:25;100568.75;;;12.19;50.13
43621;BME280;29213;50.770;7.298;2023-06-14T02:46:52;100633.38;;;12.46;50.31
43621;BME280;29213;50.770;7.298;2023-06-14T02:49:17;100470.66;;;11.49;50.28
43621;BME280;29213;50.770;7.298;2023-06-14T02:51:43;100599.28;;;12.25;50.40
43621;BME280;29213;50.770;7.298;2023-06-14T02:54:08;100647.38;;;12.48;50.43
43621;BME280;29213;50.770;7.298;2023-06-14T02:56:33;100660.31;;;12.60;50.56
43621;BME280;29213;50.770;7.298;2023-06-14T02:58:59;100598.66;;;12.14;50.40
43621;BME280;29213;50.770;7.298;2023-06-14T03:01:28;100670.06;;;12.52;50.72
43621;BME280;29213;50.770;7.298;2023-06-14T03:04:02;100670.44;;;12.49;50.83
43621;BME280;29213;50.770;7.298;2023-06-14T03:06:31;100593.69;;;12.03;50.96
43621;BME280;29213;50.770;7.298;2023-06-14T03:08:57;100662.28;;;12.42;51.03
43621;BME280;29213;50.770;7.298;2023-06-14T03:11:26;100638.00;;;12.21;50.79
43621;BME280;29213;50.770;7.298;2023-06-14T03:13:52;100677.63;;;12.40;50.90
43621;BME280;29213;50.770;7.298;2023-06-14T03:16:18;100585.56;;;11.80;50.71
43621;BME280;29213;50.770;7.298;2023-06-14T03:18:48;100585.09;;;11.76;50.90
43621;BME280;29213;50.770;7.298;2023-06-14T03:21:14;100583.75;;;11.72;50.63
43621;BME280;29213;50.770;7.298;2023-06-14T03:23:42;100631.28;;;11.93;50.84
43621;BME280;29213;50.770;7.298;2023-06-14T03:26:07;100681.84;;;12.26;50.94
43621;BME280;29213;50.770;7.298;2023-06-14T03:28:33;100639.94;;;11.95;50.79
43621;BME280;29213;50.770;7.298;2023-06-14T03:30:58;100692.03;;;12.23;50.97
43621;BME280;29213;50.770;7.298;2023-06-14T03:33:24;100602.31;;;11.65;51.34
43621;BME280;29213;50.770;7.298;2023-06-14T03:35:50;100697.91;;;12.18;51.07
43621;BME280;29213;50.770;7.298;2023-06-14T03:38:16;100693.75;;;12.15;50.91
43621;BME280;29213;50.770;7.298;2023-06-14T03:40:41;100530.56;;;11.05;51.08
43621;BME280;29213;50.770;7.298;2023-06-14T03:43:07;100626.59;;;11.70;51.29
43621;BME280;29213;50.770;7.298;2023-06-14T03:45:32;100671.97;;;11.95;51.01
43621;BME280;29213;50.770;7.298;2023-06-14T03:47:57;100636.31;;;11.71;51.37
43621;BME280;29213;50.770;7.298;2023-06-14T03:50:23;100650.78;;;11.77;51.13
43621;BME280;29213;50.770;7.298;2023-06-14T03:52:49;100649.97;;;11.76;51.43
43621;BME280;29213;50.770;7.298;2023-06-14T03:55:15;100641.97;;;11.68;51.10
43621;BME280;29213;50.770;7.298;2023-06-14T03:57:41;100717.63;;;12.09;51.19
43621;BME280;29213;50.770;7.298;2023-06-14T04:00:08;100717.47;;;12.10;51.25
43621;BME280;29213;50.770;7.298;2023-06-14T04:02:34;100694.31;;;11.94;51.35
43621;BME280;29213;50.770;7.298;2023-06-14T04:05:02;100648.63;;;11.64;51.50
43621;BME280;29213;50.770;7.298;2023-06-14T04:07:28;100614.81;;;11.48;51.24
43621;BME280;29213;50.770;7.298;2023-06-14T04:09:54;100678.63;;;11.83;51.34
43621;BME280;29213;50.770;7.298;2023-06-14T04:12:19;100680.81;;;11.79;51.35
43621;BME280;29213;50.770;7.298;2023-06-14T04:14:45;100618.66;;;11.45;51.13
43621;BME280;29213;50.770;7.298;2023-06-14T04:17:10;100684.28;;;11.88;51.16
43621;BME280;29213;50.770;7.298;2023-06-14T04:19:36;100642.47;;;11.55;51.13
43621;BME280;29213;50.770;7.298;2023-06-14T04:22:01;100696.47;;;11.90;51.11
43621;BME280;29213;50.770;7.298;2023-06-14T04:24:28;100681.78;;;11.78;51.22
43621;BME280;29213;50.770;7.298;2023-06-14T04:27:00;100676.66;;;11.76;51.33
43621;BME280;29213;50.770;7.298;2023-06-14T04:29:26;100664.63;;;11.72;51.04
43621;BME280;29213;50.770;7.298;2023-06-14T04:31:54;100666.47;;;11.72;51.13
43621;BME280;29213;50.770;7.298;2023-06-14T04:34:20;100748.47;;;12.20;51.21
43621;BME280;29213;50.770;7.298;2023-06-14T04:36:47;100669.28;;;11.79;51.00
43621;BME280;29213;50.770;7.298;2023-06-14T04:39:20;100661.44;;;11.77;51.22
43621;BME280;29213;50.770;7.298;2023-06-14T04:41:46;100753.78;;;12.28;51.28
43621;BME280;29213;50.770;7.298;2023-06-14T04:44:13;100766.91;;;12.46;51.30
43621;BME280;29213;50.770;7.298;2023-06-14T04:46:39;100713.09;;;12.17;51.33
43621;BME280;29213;50.770;7.298;2023-06-14T04:49:15;100765.91;;;12.55;51.26
43621;BME280;29213;50.770;7.298;2023-06-14T04:51:45;100777.72;;;12.61;51.19
43621;BME280;29213;50.770;7.298;2023-06-14T04:54:11;100745.38;;;12.48;51.40
43621;BME280;29213;50.770;7.298;2023-06-14T04:56:42;100705.06;;;12.26;51.23
43621;BME280;29213;50.770;7.298;2023-06-14T04:59:08;100753.34;;;12.56;51.40
43621;BME280;29213;50.770;7.298;2023-06-14T05:01:34;100664.44;;;12.07;51.47
43621;BME280;29213;50.770;7.298;2023-06-14T05:04:00;100755.00;;;12.65;51.79
43621;BME280;29213;50.770;7.298;2023-06-14T05:06:25;100686.84;;;12.29;51.74
43621;BME280;29213;50.770;7.298;2023-06-14T05:08:54;100733.63;;;12.65;51.66
43621;BME280;29213;50.770;7.298;2023-06-14T05:11:20;100719.09;;;12.68;51.97
43621;BME280;29213;50.770;7.298;2023-06-14T05:13:45;100699.13;;;12.55;51.89
43621;BME280;29213;50.770;7.298;2023-06-14T05:16:12;100776.69;;;13.11;51.93
43621;BME280;29213;50.770;7.298;2023-06-14T05:18:37;100761.00;;;13.07;52.29
43621;BME280;29213;50.770;7.298;2023-06-14T05:21:05;100706.34;;;12.78;52.50
43621;BME280;29213;50.770;7.298;2023-06-14T05:23:31;100778.25;;;13.28;52.35
43621;BME280;29213;50.770;7.298;2023-06-14T05:25:56;100707.78;;;12.89;52.22
43621;BME280;29213;50.770;7.298;2023-06-14T05:28:22;100697.75;;;12.91;52.14
43621;BME280;29213;50.770;7.298;2023-06-14T05:30:48;100709.56;;;13.05;52.30
43621;BME280;29213;50.770;7.298;2023-06-14T05:33:13;100704.31;;;13.12;52.19
43621;BME280;29213;50.770;7.298;2023-06-14T05:35:39;100716.44;;;13.23;52.40
43621;BME280;29213;50.770;7.298;2023-06-14T05:38:04;100790.13;;;13.72;52.21
43621;BME280;29213;50.770;7.298;2023-06-14T05:40:30;100698.66;;;13.30;49.62
43621;BME280;29213;50.770;7.298;2023-06-14T05:42:56;100635.44;;;12.91;47.79
43621;BME280;29213;50.770;7.298;2023-06-14T05:45:21;100700.16;;;13.33;47.80
43621;BME280;29213;50.770;7.298;2023-06-14T05:47:47;100770.63;;;13.87;47.66
43621;BME280;29213;50.770;7.298;2023-06-14T05:50:12;100731.81;;;13.68;46.54
43621;BME280;29213;50.770;7.298;2023-06-14T05:52:38;100796.09;;;14.21;47.37
43621;BME280;29213;50.770;7.298;2023-06-14T05:55:04;100782.03;;;14.19;45.17
43621;BME280;29213;50.770;7.298;2023-06-14T05:57:30;100783.63;;;14.43;47.49
43621;BME280;29213;50.770;7.298;2023-06-14T05:59:55;100727.28;;;14.22;47.07
43621;BME280;29213;50.770;7.298;2023-06-14T06:02:21;100795.34;;;14.73;46.64
43621;BME280;29213;50.770;7.298;2023-06-14T06:04:46;100708.06;;;14.33;44.99
43621;BME280;29213;50.770;7.298;2023-06-14T06:07:11;100726.59;;;14.50;43.47
43621;BME280;29213;50.770;7.298;2023-06-14T06:09:37;100743.94;;;14.69;43.11
43621;BME280;29213;50.770;7.298;2023-06-14T06:12:02;100634.16;;;13.94;43.71
43621;BME280;29213;50.770;7.298;2023-06-14T06:14:28;100394.41;;;12.72;45.49
43621;BME280;29213;50.770;7.298;2023-06-14T06:16:54;100727.28;;;14.89;43.00
43621;BME280;29213;50.770;7.298;2023-06-14T06:19:19;100715.34;;;14.91;43.22
43621;BME280;29213;50.770;7.298;2023-06-14T06:21:45;100666.47;;;14.74;43.46
43621;BME280;29213;50.770;7.298;2023-06-14T06:24:10;100742.75;;;15.23;42.34
43621;BME280;29213;50.770;7.298;2023-06-14T06:26:35;100802.66;;;15.74;42.27
43621;BME280;29213;50.770;7.298;2023-06-14T06:29:01;100761.56;;;15.52;41.30
43621;BME280;29213;50.770;7.298;2023-06-14T06:31:27;100762.91;;;15.63;40.43
43621;BME280;29213;50.770;7.298;2023-06-14T06:33:53;100716.28;;;15.42;42.57
43621;BME280;29213;50.770;7.298;2023-06-14T06:36:19;100805.25;;;16.11;42.37
43621;BME280;29213;50.770;7.298;2023-06-14T06:38:45;100641.94;;;15.14;40.89
43621;BME280;29213;50.770;7.298;2023-06-14T06:41:11;100717.13;;;15.71;42.55
43621;BME280;29213;50.770;7.298;2023-06-14T06:43:36;100646.69;;;15.41;40.62
43621;BME280;29213;50.770;7.298;2023-06-14T06:46:02;100774.75;;;16.26;40.32
43621;BME280;29213;50.770;7.298;2023-06-14T06:48:27;100719.44;;;16.03;41.43
43621;BME280;29213;50.770;7.298;2023-06-14T06:50:53;100617.41;;;15.46;39.23
43621;BME280;29213;50.770;7.298;2023-06-14T06:53:19;100766.16;;;16.44;41.63
43621;BME280;29213;50.770;7.298;2023-06-14T06:55:44;100819.81;;;16.94;40.13
43621;BME280;29213;50.770;7.298;2023-06-14T06:58:10;100764.19;;;16.60;38.88
43621;BME280;29213;50.770;7.298;2023-06-14T07:00:35;100787.25;;;16.82;38.96
43621;BME280;29213;50.770;7.298;2023-06-14T07:03:01;100798.09;;;17.03;38.71
43621;BME280;29213;50.770;7.298;2023-06-14T07:05:26;100764.13;;;16.95;37.50
43621;BME280;29213;50.770;7.298;2023-06-14T07:07:52;100815.59;;;17.47;37.58
43621;BME280;29213;50.770;7.298;2023-06-14T07:10:18;100819.53;;;17.52;36.50
43621;BME280;29213;50.770;7.298;2023-06-14T07:12:43;100645.63;;;16.48;36.34
43621;BME280;29213;50.770;7.298;2023-06-14T07:15:09;100738.13;;;17.16;36.68
43621;BME280;29213;50.770;7.298;2023-06-14T07:17:35;100807.16;;;17.71;36.37
43621;BME280;29213;50.770;7.298;2023-06-14T07:20:04;100818.56;;;17.93;35.81
43621;BME280;29213;50.770;7.298;2023-06-14T07:22:49;100803.44;;;17.92;35.24
43621;BME280;29213;50.770;7.298;2023-06-14T07:25:15;100735.84;;;17.60;34.71
43621;BME280;29213;50.770;7.298;2023-06-14T07:27:42;100759.47;;;17.92;35.46
43621;BME280;29213;50.770;7.298;2023-06-14T07:30:08;100695.28;;;17.68;35.72
43621;BME280;29213;50.770;7.298;2023-06-14T07:32:34;100777.25;;;18.26;33.52
43621;BME280;29213;50.770;7.298;2023-06-14T07:34:59;100735.22;;;18.05;33.79
43621;BME280;29213;50.770;7.298;2023-06-14T07:37:25;100772.88;;;18.39;35.04
43621;BME280;29213;50.770;7.298;2023-06-14T07:39:50;100519.13;;;16.90;34.57
43621;BME280;29213;50.770;7.298;2023-06-14T07:42:16;100812.69;;;19.03;34.35
43621;BME280;29213;50.770;7.298;2023-06-14T07:44:41;100699.19;;;18.52;33.61
43621;BME280;29213;50.770;7.298;2023-06-14T07:47:07;100676.81;;;18.51;33.91
43621;BME280;29213;50.770;7.298;2023-06-14T07:49:32;100779.38;;;19.22;33.13
43621;BME280;29213;50.770;7.298;2023-06-14T07:51:57;100742.84;;;19.20;33.86
43621;BME280;29213;50.770;7.298;2023-06-14T07:54:24;100763.47;;;19.46;34.49
43621;BME280;29213;50.770;7.298;2023-06-14T07:56:52;100810.50;;;19.89;32.59
43621;BME280;29213;50.770;7.298;2023-06-14T07:59:18;100816.81;;;20.02;31.78
43621;BME280;29213;50.770;7.298;2023-06-14T08:01:43;100756.78;;;19.74;32.56
43621;BME280;29213;50.770;7.298;2023-06-14T08:04:15;100794.53;;;20.07;32.52
43621;BME280;29213;50.770;7.298;2023-06-14T08:06:41;100802.31;;;20.22;31.71
43621;BME280;29213;50.770;7.298;2023-06-14T08:09:10;100756.69;;;20.13;32.87
43621;BME280;29213;50.770;7.298;2023-06-14T08:11:36;100751.63;;;20.17;30.56
43621;BME280;29213;50.770;7.298;2023-06-14T08:14:02;100764.16;;;20.30;32.77
43621;BME280;29213;50.770;7.298;2023-06-14T08:16:27;100737.22;;;20.23;29.96
43621;BME280;29213;50.770;7.298;2023-06-14T08:18:53;100732.69;;;20.36;32.19
43621;BME280;29213;50.770;7.298;2023-06-14T08:21:18;100776.69;;;20.80;30.91
43621;BME280;29213;50.770;7.298;2023-06-14T08:23:44;100676.09;;;20.22;29.75
43621;BME280;29213;50.770;7.298;2023-06-14T08:26:10;100668.94;;;20.28;29.03
43621;BME280;29213;50.770;7.298;2023-06-14T08:28:36;100790.19;;;21.18;29.52
43621;BME280;29213;50.770;7.298;2023-06-14T08:31:01;100543.13;;;19.76;30.74
43621;BME280;29213;50.770;7.298;2023-06-14T08:33:26;100809.47;;;21.52;29.28
43621;BME280;29213;50.770;7.298;2023-06-14T08:35:52;100715.59;;;21.03;29.30
43621;BME280;29213;50.770;7.298;2023-06-14T08:38:17;100713.03;;;21.08;30.28
43621;BME280;29213;50.770;7.298;2023-06-14T08:40:45;100795.16;;;21.87;29.14
43621;BME280;29213;50.770;7.298;2023-06-14T08:43:13;100769.28;;;21.49;27.49
43621;BME280;29213;50.770;7.298;2023-06-14T08:45:38;100503.53;;;20.00;28.05
43621;BME280;29213;50.770;7.298;2023-06-14T08:48:08;100782.66;;;21.86;28.21
43621;BME280;29213;50.770;7.298;2023-06-14T08:50:35;100714.19;;;21.67;28.56
43621;BME280;29213;50.770;7.298;2023-06-14T08:53:02;100705.47;;;21.65;27.34
43621;BME280;29213;50.770;7.298;2023-06-14T08:55:29;100764.03;;;22.26;27.78
43621;BME280;29213;50.770;7.298;2023-06-14T08:57:56;100622.16;;;21.60;28.29
43621;BME280;29213;50.770;7.298;2023-06-14T09:00:26;100749.44;;;22.56;28.06
43621;BME280;29213;50.770;7.298;2023-06-14T09:02:52;100778.97;;;22.81;26.47
43621;BME280;29213;50.770;7.298;2023-06-14T09:05:24;100559.88;;;21.48;26.32
43621;BME280;29213;50.770;7.298;2023-06-14T09:07:50;100721.19;;;22.69;26.15
43621;BME280;29213;50.770;7.298;2023-06-14T09:10:16;100782.28;;;23.13;25.34
43621;BME280;29213;50.770;7.298;2023-06-14T09:12:42;100486.00;;;21.41;26.00
43621;BME280;29213;50.770;7.298;2023-06-14T09:15:08;100680.66;;;22.79;25.43
43621;BME280;29213;50.770;7.298;2023-06-14T09:17:38;100785.91;;;23.65;24.81
43621;BME280;29213;50.770;7.298;2023-06-14T09:20:08;100656.19;;;22.91;24.92
43621;BME280;29213;50.770;7.298;2023-06-14T09:22:42;100509.44;;;22.18;25.30
43621;BME280;29213;50.770;7.298;2023-06-14T09:25:08;100574.53;;;22.64;24.77
43621;BME280;29213;50.770;7.298;2023-06-14T09:27:34;100546.81;;;22.45;24.76
43621;BME280;29213;50.770;7.298;2023-06-14T09:30:03;100700.38;;;23.72;25.55
43621;BME280;29213;50.770;7.298;2023-06-14T09:32:29;100812.47;;;24.53;24.61
43621;BME280;29213;50.770;7.298;2023-06-14T09:34:56;100774.00;;;24.45;24.49
43621;BME280;29213;50.770;7.298;2023-06-14T09:37:31;100791.13;;;24.67;23.60
43621;BME280;29213;50.770;7.298;2023-06-14T09:39:58;100807.28;;;24.97;24.30
43621;BME280;29213;50.770;7.298;2023-06-14T09:42:24;100730.41;;;24.67;24.64
43621;BME280;29213;50.770;7.298;2023-06-14T09:44:54;100807.63;;;25.33;24.49
43621;BME280;29213;50.770;7.298;2023-06-14T09:47:20;100729.50;;;24.84;24.33
43621;BME280;29213;50.770;7.298;2023-06-14T09:49:47;100813.03;;;25.55;24.04
43621;BME280;29213;50.770;7.298;2023-06-14T09:52:17;100806.00;;;25.65;23.62
43621;BME280;29213;50.770;7.298;2023-06-14T09:54:44;100801.50;;;25.81;24.60
43621;BME280;29213;50.770;7.298;2023-06-14T09:57:17;100787.25;;;25.73;22.98
43621;BME280;29213;50.770;7.298;2023-06-14T09:59:46;100797.97;;;25.85;23.11
43621;BME280;29213;50.770;7.298;2023-06-14T10:02:25;100794.81;;;26.04;23.81
43621;BME280;29213;50.770;7.298;2023-06-14T10:05:11;100801.25;;;26.31;23.25
43621;BME280;29213;50.770;7.298;2023-06-14T10:07:48;100686.38;;;25.79;23.53
43621;BME280;29213;50.770;7.298;2023-06-14T10:10:16;100724.22;;;26.13;22.36
43621;BME280;29213;50.770;7.298;2023-06-14T10:12:42;100796.69;;;26.52;22.10
43621;BME280;29213;50.770;7.298;2023-06-14T10:15:21;100759.00;;;26.44;22.32
43621;BME280;29213;50.770;7.298;2023-06-14T10:17:53;100798.66;;;26.67;23.76
43621;BME280;29213;50.770;7.298;2023-06-14T10:20:32;100686.88;;;26.24;22.01
43621;BME280;29213;50.770;7.298;2023-06-14T10:23:15;100787.56;;;26.89;22.42
43621;BME280;29213;50.770;7.298;2023-06-14T10:25:42;100759.66;;;26.72;22.81
43621;BME280;29213;50.770;7.298;2023-06-14T10:28:14;100794.66;;;26.96;22.19
43621;BME280;29213;50.770;7.298;2023-06-14T10:31:08;100792.72;;;26.80;22.34
43621;BME280;29213;50.770;7.298;2023-06-14T10:33:35;100753.84;;;26.63;22.65
43621;BME280;29213;50.770;7.298;2023-06-14T10:38:38;100752.84;;;26.95;22.38
43621;BME280;29213;50.770;7.298;2023-06-14T10:41:05;100795.50;;;27.17;22.22
43621;BME280;29213;50.770;7.298;2023-06-14T10:43:31;100687.22;;;26.53;22.30
43621;BME280;29213;50.770;7.298;2023-06-14T10:46:16;100775.28;;;26.97;22.54
43621;BME280;29213;50.770;7.298;2023-06-14T10:48:43;100750.38;;;26.93;22.09
43621;BME280;29213;50.770;7.298;2023-06-14T10:51:19;100770.63;;;27.03;22.34
43621;BME280;29213;50.770;7.298;2023-06-14T10:53:47;100762.16;;;27.04;22.33
43621;BME280;29213;50.770;7.298;2023-06-14T10:56:23;100790.63;;;27.40;22.03
43621;BME280;29213;50.770;7.298;2023-06-14T10:58:50;100642.97;;;26.46;21.79
43621;BME280;29213;50.770;7.298;2023-06-14T11:01:23;100753.97;;;27.10;21.73
43621;BME280;29213;50.770;7.298;2023-06-14T11:03:53;100511.56;;;25.16;21.24
43621;BME280;29213;50.770;7.298;2023-06-14T11:06:21;100522.47;;;25.16;21.16
43621;BME280;29213;50.770;7.298;2023-06-14T11:11:32;100785.91;;;26.83;20.93
43621;BME280;29213;50.770;7.298;2023-06-14T11:13:59;100759.84;;;26.54;21.74
43621;BME280;29213;50.770;7.298;2023-06-14T11:16:26;100491.69;;;24.73;20.46
43621;BME280;29213;50.770;7.298;2023-06-14T11:18:53;100709.84;;;26.38;21.11
43621;BME280;29213;50.770;7.298;2023-06-14T11:21:19;100790.59;;;26.98;20.23
43621;BME280;29213;50.770;7.298;2023-06-14T11:23:51;100778.50;;;26.78;19.54
43621;BME280;29213;50.770;7.298;2023-06-14T11:26:24;100699.16;;;26.32;20.26
43621;BME280;29213;50.770;7.298;2023-06-14T11:28:55;100806.41;;;27.01;20.27
43621;BME280;29213;50.770;7.298;2023-06-14T11:31:20;100774.97;;;26.93;21.11
43621;BME280;29213;50.770;7.298;2023-06-14T11:33:49;100785.13;;;27.14;21.47
43621;BME280;29213;50.770;7.298;2023-06-14T11:36:15;100759.44;;;26.99;20.98
43621;BME280;29213;50.770;7.298;2023-06-14T11:38:41;100543.19;;;25.71;20.75
43621;BME280;29213;50.770;7.298;2023-06-14T11:41:06;100747.13;;;26.97;20.94
43621;BME280;29213;50.770;7.298;2023-06-14T11:43:31;100768.47;;;27.00;20.81
43621;BME280;29213;50.770;7.298;2023-06-14T11:46:00;100775.56;;;27.01;20.93
43621;BME280;29213;50.770;7.298;2023-06-14T11:48:42;100781.28;;;27.04;21.09
43621;BME280;29213;50.770;7.298;2023-06-14T11:51:07;100796.06;;;27.19;21.06
43621;BME280;29213;50.770;7.298;2023-06-14T11:53:33;100740.53;;;26.87;21.27
43621;BME280;29213;50.770;7.298;2023-06-14T11:55:59;100809.44;;;27.10;20.43
43621;BME280;29213;50.770;7.298;2023-06-14T11:58:25;100755.84;;;26.78;20.69
43621;BME280;29213;50.770;7.298;2023-06-14T12:00:53;100769.53;;;27.04;21.30
43621;BME280;29213;50.770;7.298;2023-06-14T12:03:22;100759.16;;;26.90;20.45
43621;BME280;29213;50.770;7.298;2023-06-14T12:05:48;100795.78;;;27.10;20.91
43621;BME280;29213;50.770;7.298;2023-06-14T12:08:14;100752.28;;;26.83;21.23
43621;BME280;29213;50.770;7.298;2023-06-14T12:10:42;100765.44;;;26.91;20.93
43621;BME280;29213;50.770;7.298;2023-06-14T12:13:09;100767.88;;;26.92;20.98
43621;BME280;29213;50.770;7.298;2023-06-14T12:15:34;100798.78;;;27.09;21.06
43621;BME280;29213;50.770;7.298;2023-06-14T12:18:00;100805.88;;;27.04;21.09
43621;BME280;29213;50.770;7.298;2023-06-14T12:20:30;100765.94;;;26.77;21.63
43621;BME280;29213;50.770;7.298;2023-06-14T12:22:58;100734.44;;;26.54;21.49
43621;BME280;29213;50.770;7.298;2023-06-14T12:25:27;100716.09;;;26.39;21.34
43621;BME280;29213;50.770;7.298;2023-06-14T12:27:57;100714.72;;;26.31;21.69
43621;BME280;29213;50.770;7.298;2023-06-14T12:30:22;100781.44;;;26.61;21.64
43621;BME280;29213;50.770;7.298;2023-06-14T12:32:48;100681.84;;;26.00;21.68
43621;BME280;29213;50.770;7.298;2023-06-14T12:35:14;100740.41;;;26.35;21.90
43621;BME280;29213;50.770;7.298;2023-06-14T12:37:40;100750.41;;;26.14;21.91
43621;BME280;29213;50.770;7.298;2023-06-14T12:40:06;100752.16;;;25.93;22.14
43621;BME280;29213;50.770;7.298;2023-06-14T12:42:32;100730.09;;;25.51;23.43
43621;BME280;29213;50.770;7.298;2023-06-14T12:44:59;100728.16;;;25.14;22.48
43621;BME280;29213;50.770;7.298;2023-06-14T12:47:24;100818.72;;;25.54;23.45
43621;BME280;29213;50.770;7.298;2023-06-14T12:49:50;100762.22;;;25.16;23.31
43621;BME280;29213;50.770;7.298;2023-06-14T12:52:15;100823.41;;;25.31;22.98
43621;BME280;29213;50.770;7.298;2023-06-14T12:54:41;100730.53;;;24.55;23.12